Edina, MN (55435)

9:58 PM CDT on July 27, 2016 (GMT -0500)
Edina: Fred Richards Park | | Change Station

Elev 835 ft 44.87 °N, 93.34 °W | Updated 3 seconds ago

Overcast
Overcast
69.8 °F
Feels Like 69.8 °F
N
3.0
Wind Variable Wind from North
Gusts 10.0 mph

Today
High -- | Low -- °F
--% Chance of Precip.
Yesterday
High -- | Low -- °F
Precip. -- in
Pressure 29.97 in
Visibility 10.0 miles
Clouds Scattered Clouds 1500 ft
Mostly Cloudy 2100 ft
Overcast 3000 ft
Dew Point 65 °F
Humidity 86%
Rainfall 0.46 in
Snow Depth Not available.
5:54 AM 8:44 PM
Last Quarter, 37% visible
METAR KMSP 280253Z 35005KT 10SM SCT015 BKN021 OVC030 21/18 A2998 RMK AO2 SLP147 T02110178 53014
Pressure 29.97 in
Visibility 10.0 miles
Clouds Scattered Clouds 1500 ft
Mostly Cloudy 2100 ft
Overcast 3000 ft
Dew Point 65 °F
Humidity 86%
Rainfall 0.46 in
Snow Depth Not available.
5:54 AM 8:44 PM
Last Quarter, 37% visible
METAR KMSP 280253Z 35005KT 10SM SCT015 BKN021 OVC030 21/18 A2998 RMK AO2 SLP147 T02110178 53014

10-Day Weather Forecast

Almanac

Astronomy

Jul. 27, 2016 Rise Set
Actual Time
Civil Twilight
Nautical Twilight
Astronomical Twilight
Moon
Length of Visible Light
Length of Day
Tomorrow will be .
, % of the Moon is Illuminated

Today's Extremes

State Highs State Lows

Community

WunderPhotos

Upload Photos

1,928,022 photos uploaded!

WunderBlog® & News

Nearby

Air Quality

  Air Quality AQ Index Pollutant
Not available.

Snow Depth

Station Depth Elevation

Earthquake Activity

City Distance Mag. Time & Date
Minimum magnitude displayed is 2.5.

Coastal Water Temperatures

Place Temperature

Stations

Nearby Weather Stations

Station Location Temp. Windchill Dew Point Humidity Wind Precip. Elev Updated Type
                   

Watches & Warnings

There are currently no watches in effect.